Time;durP1;ratioP1;P1;durP2;ratioP2;P2;SDS_P1;SDS_P2;PMS_P1;PMS_P2;Temp;Humidity;BMP_temperature;BMP_pressure;BME280_temperature;BME280_humidity;BME280_pressure;Samples;Min_cycle;Max_cycle;Signal;HPM_P1;HPM_P2
2021/04/25 00:04:48;;;;;;;5.80;4.27;;;12.20;20.00;;;;;;10448203;28;20245;-75
2021/04/25 00:09:51;;;;;;;5.97;4.47;;;12.20;20.00;;;;;;10447416;28;20224;-75
2021/04/25 00:14:53;;;;;;;4.67;4.27;;;12.10;20.00;;;;;;10449825;28;20667;-75
2021/04/25 00:19:56;;;;;;;5.43;4.07;;;12.10;20.00;;;;;;10447645;28;20217;-76
2021/04/25 00:25:00;;;;;;;4.70;4.30;;;12.00;19.90;;;;;;10447515;28;20312;-75
2021/04/25 00:30:03;;;;;;;6.23;4.93;;;11.90;19.80;;;;;;10447036;28;20308;-75
2021/04/25 00:35:07;;;;;;;5.60;4.87;;;11.80;19.80;;;;;;10449442;28;20313;-75
2021/04/25 00:40:13;;;;;;;4.40;3.90;;;11.80;20.20;;;;;;10444731;28;20240;-75
2021/04/25 00:45:17;;;;;;;4.50;4.10;;;11.80;20.40;;;;;;10448338;28;20792;-75
2021/04/25 00:50:24;;;;;;;5.53;4.10;;;11.70;20.40;;;;;;10447191;28;20307;-75
2021/04/25 00:55:29;;;;;;;5.03;4.53;;;11.70;20.30;;;;;;10443822;28;20307;-75
2021/04/25 01:00:32;;;;;;;4.30;3.90;;;11.80;20.70;;;;;;10444637;28;20315;-75
2021/04/25 01:05:35;;;;;;;4.57;4.17;;;11.70;20.40;;;;;;10441209;28;20228;-75
2021/04/25 01:10:38;;;;;;;4.60;4.20;;;11.70;20.50;;;;;;10446904;28;20604;-75
2021/04/25 01:15:40;;;;;;;4.37;3.97;;;11.70;20.70;;;;;;10443755;28;20311;-75
2021/04/25 01:20:42;;;;;;;5.47;4.50;;;11.70;20.60;;;;;;10442652;28;20225;-75
2021/04/25 01:25:45;;;;;;;5.03;4.20;;;11.60;20.60;;;;;;10443463;28;20222;-75
2021/04/25 01:30:48;;;;;;;5.10;4.13;;;11.60;20.80;;;;;;10444607;28;20308;-75
2021/04/25 01:35:51;;;;;;;6.53;5.20;;;11.60;20.70;;;;;;10444705;28;20312;-75
2021/04/25 01:40:54;;;;;;;6.37;4.90;;;11.50;20.70;;;;;;10441241;28;20257;-75
2021/04/25 01:45:56;;;;;;;4.60;4.13;;;11.50;20.90;;;;;;10445386;28;20355;-75
2021/04/25 01:50:59;;;;;;;5.80;4.80;;;11.40;20.80;;;;;;10441685;28;20324;-75
2021/04/25 01:56:03;;;;;;;5.53;3.93;;;11.40;20.90;;;;;;10444369;28;20320;-75
2021/04/25 02:01:06;;;;;;;6.30;5.17;;;11.40;21.20;;;;;;10440826;28;20714;-75
2021/04/25 02:06:08;;;;;;;5.43;4.87;;;11.30;21.10;;;;;;10445342;28;20741;-75
2021/04/25 02:11:11;;;;;;;6.07;5.47;;;11.30;21.20;;;;;;10442161;28;20229;-75
2021/04/25 02:16:14;;;;;;;6.10;5.33;;;11.30;21.70;;;;;;10438100;28;20257;-75
2021/04/25 02:21:16;;;;;;;6.13;5.40;;;11.20;21.60;;;;;;10444028;28;20232;-75
2021/04/25 02:26:19;;;;;;;10.37;6.10;;;11.20;21.70;;;;;;10443530;28;20638;-75
2021/04/25 02:31:21;;;;;;;7.60;6.90;;;11.10;21.90;;;;;;10443876;28;20279;-75
2021/04/25 02:36:24;;;;;;;7.77;7.07;;;11.10;21.90;;;;;;10441907;28;20622;-75
2021/04/25 02:41:27;;;;;;;7.23;6.53;;;11.00;21.90;;;;;;10443280;28;20312;-75
2021/04/25 02:46:30;;;;;;;9.77;6.87;;;11.00;22.00;;;;;;10440296;28;20304;-75
2021/04/25 02:51:32;;;;;;;9.00;7.57;;;11.00;22.00;;;;;;10444496;28;20248;-75
2021/04/25 02:56:35;;;;;;;9.00;7.97;;;10.90;22.20;;;;;;10442611;28;20252;-75
2021/04/25 03:01:37;;;;;;;8.67;7.60;;;10.90;22.50;;;;;;10444173;28;20649;-75
2021/04/25 03:06:39;;;;;;;7.60;6.80;;;10.80;22.20;;;;;;10452611;28;20295;-75
2021/04/25 03:11:43;;;;;;;7.40;6.70;;;10.80;22.30;;;;;;10451256;28;20236;-75
2021/04/25 03:16:45;;;;;;;9.60;8.20;;;10.80;22.50;;;;;;10449880;28;20225;-75
2021/04/25 03:21:47;;;;;;;9.00;8.03;;;10.70;22.40;;;;;;10450082;28;20232;-75
2021/04/25 03:26:50;;;;;;;10.20;8.20;;;10.70;22.50;;;;;;10452645;28;20312;-75
2021/04/25 03:31:53;;;;;;;9.73;8.23;;;10.70;22.60;;;;;;10449085;28;20231;-76
2021/04/25 03:36:55;;;;;;;8.70;7.80;;;10.70;22.40;;;;;;10448103;28;20262;-75
2021/04/25 03:41:58;;;;;;;7.40;6.70;;;10.60;22.40;;;;;;10442622;28;20308;-75
2021/04/25 03:47:00;;;;;;;9.33;8.20;;;10.60;22.60;;;;;;10445446;28;20244;-75
2021/04/25 03:52:03;;;;;;;9.73;8.70;;;10.60;22.60;;;;;;10447320;28;20233;-75
2021/04/25 03:57:07;;;;;;;8.13;7.33;;;10.50;22.60;;;;;;10445522;28;20516;-75
2021/04/25 04:02:09;;;;;;;7.13;6.43;;;10.40;22.80;;;;;;10449931;28;20227;-75
2021/04/25 04:07:11;;;;;;;6.60;6.00;;;10.30;22.60;;;;;;10446638;28;20728;-73
2021/04/25 04:12:14;;;;;;;5.67;5.17;;;10.20;22.60;;;;;;10447790;28;20253;-73
2021/04/25 04:17:17;;;;;;;7.73;6.67;;;10.20;22.80;;;;;;10448849;28;20291;-74
2021/04/25 04:22:19;;;;;;;9.93;8.07;;;10.20;22.90;;;;;;10448297;28;20229;-73
2021/04/25 04:27:22;;;;;;;6.70;5.93;;;10.10;22.80;;;;;;10448564;28;20312;-74
2021/04/25 04:32:25;;;;;;;7.43;6.73;;;10.10;23.10;;;;;;10447787;28;20354;-74
2021/04/25 04:37:30;;;;;;;8.10;7.30;;;10.10;22.90;;;;;;10444558;28;20751;-74
2021/04/25 04:42:33;;;;;;;8.97;6.73;;;10.00;22.90;;;;;;10447466;28;20225;-74
2021/04/25 04:47:36;;;;;;;9.63;8.63;;;10.00;23.10;;;;;;10442006;28;20231;-73
2021/04/25 04:52:38;;;;;;;9.63;8.13;;;10.00;23.30;;;;;;10445489;28;20287;-73
2021/04/25 04:57:41;;;;;;;7.50;6.70;;;10.00;23.20;;;;;;10447227;28;20312;-73
2021/04/25 05:02:43;;;;;;;9.60;8.70;;;10.00;23.40;;;;;;10445942;28;20381;-73
2021/04/25 05:07:46;;;;;;;9.00;8.10;;;9.90;24.10;;;;;;10447003;28;20252;-73
2021/04/25 05:12:49;;;;;;;9.33;8.43;;;9.90;24.10;;;;;;10445718;28;20709;-74
2021/04/25 05:17:51;;;;;;;11.03;9.83;;;9.80;24.50;;;;;;10443592;28;20305;-73
2021/04/25 05:22:53;;;;;;;11.57;10.30;;;9.90;24.50;;;;;;10440820;28;20237;-73
2021/04/25 05:27:56;;;;;;;11.10;9.97;;;9.90;24.70;;;;;;10446364;28;20681;-73
2021/04/25 05:32:58;;;;;;;11.37;10.27;;;9.90;24.90;;;;;;10446429;28;20228;-73
2021/04/25 05:38:00;;;;;;;11.83;10.53;;;10.00;24.00;;;;;;10441924;28;20304;-73
2021/04/25 05:43:04;;;;;;;12.13;10.87;;;10.00;24.00;;;;;;10437809;28;20705;-73
2021/04/25 05:48:07;;;;;;;12.37;11.07;;;10.10;24.30;;;;;;10443058;28;20311;-76
2021/04/25 05:53:09;;;;;;;12.77;10.37;;;10.20;24.20;;;;;;10442375;28;20225;-75
2021/04/25 05:58:12;;;;;;;13.23;11.37;;;10.30;24.20;;;;;;10443973;28;20300;-75
2021/04/25 06:03:14;;;;;;;11.97;10.30;;;10.30;24.40;;;;;;10440699;28;20496;-75
2021/04/25 06:08:17;;;;;;;13.60;10.60;;;10.40;24.30;;;;;;10442805;28;20312;-75
2021/04/25 06:13:20;;;;;;;12.33;11.07;;;10.40;24.20;;;;;;10444153;28;20232;-75
2021/04/25 06:18:22;;;;;;;12.27;10.37;;;10.50;24.60;;;;;;10440791;28;20300;-75
2021/04/25 06:23:24;;;;;;;11.50;10.30;;;10.60;24.20;;;;;;10441349;28;20232;-75
2021/04/25 06:28:28;;;;;;;11.87;10.77;;;10.70;24.40;;;;;;10438426;28;20221;-75
2021/04/25 06:33:31;;;;;;;12.43;10.23;;;10.70;24.50;;;;;;10440274;28;20225;-75
2021/04/25 06:38:33;;;;;;;10.97;9.87;;;10.80;24.30;;;;;;10440725;28;20308;-75
2021/04/25 06:43:36;;;;;;;10.20;9.17;;;10.90;24.40;;;;;;10442401;28;20356;-75
2021/04/25 06:48:38;;;;;;;11.57;10.37;;;11.00;24.50;;;;;;10440030;28;20229;-75
2021/04/25 06:53:41;;;;;;;11.27;10.17;;;11.10;24.40;;;;;;10440648;28;20633;-75
2021/04/25 06:58:44;;;;;;;11.10;9.90;;;11.10;24.30;;;;;;10443826;28;20231;-75
2021/04/25 07:03:48;;;;;;;12.67;9.77;;;11.20;24.50;;;;;;10432466;28;20492;-75
2021/04/25 07:08:52;;;;;;;11.47;9.70;;;11.40;24.50;;;;;;10441422;28;20232;-75
2021/04/25 07:13:55;;;;;;;11.47;10.27;;;11.40;24.40;;;;;;10437481;28;20313;-76
2021/04/25 07:18:57;;;;;;;11.83;9.90;;;11.60;24.70;;;;;;10437019;28;20316;-75
2021/04/25 07:23:59;;;;;;;10.83;9.73;;;11.70;24.50;;;;;;10439156;28;20696;-75
2021/04/25 07:29:04;;;;;;;11.30;10.00;;;11.80;24.60;;;;;;10443218;28;20217;-75
2021/04/25 07:34:06;;;;;;;11.33;9.60;;;12.00;24.80;;;;;;10441450;28;20304;-75
2021/04/25 07:39:08;;;;;;;10.70;9.60;;;12.10;24.70;;;;;;10440339;28;20256;-75
2021/04/25 07:44:11;;;;;;;11.40;9.47;;;12.40;25.00;;;;;;10443335;28;20324;-75
2021/04/25 07:49:13;;;;;;;10.83;9.70;;;12.50;24.80;;;;;;10446440;28;20236;-76
2021/04/25 07:54:16;;;;;;;10.53;9.43;;;12.70;24.80;;;;;;10448272;28;20319;-75
2021/04/25 07:59:19;;;;;;;11.27;9.43;;;13.00;24.80;;;;;;10443667;28;20291;-75
2021/04/25 08:04:21;;;;;;;10.77;9.10;;;13.20;24.80;;;;;;10446397;28;20409;-75
2021/04/25 08:09:23;;;;;;;10.73;9.00;;;13.50;24.90;;;;;;10441264;28;20324;-75
2021/04/25 08:14:26;;;;;;;10.43;9.33;;;13.80;24.70;;;;;;10443438;28;20229;-75
2021/04/25 08:19:28;;;;;;;11.30;9.20;;;14.10;24.70;;;;;;10439895;28;20623;-75
2021/04/25 08:24:31;;;;;;;9.90;8.73;;;14.30;24.50;;;;;;10446312;28;20323;-73
2021/04/25 08:29:34;;;;;;;9.80;8.90;;;14.50;24.40;;;;;;10448951;28;20257;-74
2021/04/25 08:34:36;;;;;;;9.43;8.53;;;14.70;24.20;;;;;;10443735;28;20597;-75
2021/04/25 08:39:39;;;;;;;11.23;8.90;;;15.00;24.10;;;;;;10448568;28;20229;-73
2021/04/25 08:44:43;;;;;;;9.13;8.30;;;15.30;24.10;;;;;;10442242;28;20252;-73
2021/04/25 08:49:48;;;;;;;10.27;8.60;;;15.50;23.80;;;;;;10444905;28;20769;-73
2021/04/25 08:54:52;;;;;;;9.57;8.37;;;15.70;23.70;;;;;;10447209;28;20235;-73
2021/04/25 08:59:55;;;;;;;9.03;7.63;;;15.90;23.60;;;;;;10442091;28;20323;-74
2021/04/25 09:04:57;;;;;;;9.43;7.73;;;16.10;23.50;;;;;;10438430;28;20309;-73
2021/04/25 09:10:02;;;;;;;8.30;7.50;;;16.30;22.80;;;;;;10445622;28;20252;-73
2021/04/25 09:15:23;;;;;;;9.03;8.13;;;16.30;22.80;;;;;;10442714;28;20306;-73
2021/04/25 09:20:34;;;;;;;7.80;7.03;;;16.30;22.70;;;;;;10444781;28;20709;-73
2021/04/25 09:25:37;;;;;;;8.67;7.30;;;16.30;22.80;;;;;;10439775;28;20599;-73
2021/04/25 09:30:53;;;;;;;8.03;7.23;;;16.40;22.90;;;;;;10444806;28;20697;-73
2021/04/25 09:35:56;;;;;;;8.13;7.33;;;16.40;22.90;;;;;;10446321;28;20320;-73
2021/04/25 09:40:59;;;;;;;8.43;7.47;;;16.60;23.00;;;;;;10439670;28;20316;-72
2021/04/25 09:46:02;;;;;;;8.10;7.30;;;16.80;22.70;;;;;;10440250;28;20227;-72
2021/04/25 09:51:13;;;;;;;8.27;7.33;;;16.90;22.30;;;;;;10443310;28;20804;-71
2021/04/25 09:56:16;;;;;;;7.67;6.50;;;17.10;22.00;;;;;;10445535;28;20264;-71
2021/04/25 10:01:26;;;;;;;8.90;7.70;;;17.20;22.10;;;;;;10439897;28;20244;-72
2021/04/25 10:06:29;;;;;;;6.90;6.30;;;17.30;21.70;;;;;;10443948;28;20833;-72
2021/04/25 10:11:33;;;;;;;6.03;5.43;;;17.40;21.90;;;;;;10438101;28;20772;-72
2021/04/25 10:16:37;;;;;;;6.60;6.00;;;17.60;21.90;;;;;;10443320;28;20320;-72
2021/04/25 10:21:41;;;;;;;6.20;5.60;;;17.80;21.70;;;;;;10443074;28;20624;-74
2021/04/25 10:26:52;;;;;;;4.93;4.47;;;17.90;21.50;;;;;;10439205;28;20316;-74
2021/04/25 10:31:59;;;;;;;5.23;4.70;;;18.10;20.70;;;;;;10444281;28;20774;-74
2021/04/25 10:37:04;;;;;;;6.53;4.63;;;18.10;20.30;;;;;;10447151;28;20221;-72
2021/04/25 10:42:38;;;;;;;7.00;5.33;;;18.10;21.20;;;;;;10442652;28;20256;-72
2021/04/25 10:47:42;;;;;;;4.87;4.10;;;18.20;19.70;;;;;;10359511;28;20304;-72
2021/04/25 10:52:47;;;;;;;5.07;4.57;;;18.20;19.80;;;;;;10444486;28;20747;-71
2021/04/25 10:58:16;;;;;;;4.93;4.43;;;18.30;20.60;;;;;;10435772;28;20245;-72
2021/04/25 11:03:42;;;;;;;5.13;4.67;;;18.40;18.40;;;;;;10443051;28;20240;-72
2021/04/25 11:08:44;;;;;;;5.33;4.50;;;18.30;19.50;;;;;;10443402;28;20278;-72
2021/04/25 11:13:47;;;;;;;4.80;4.40;;;18.30;20.20;;;;;;10441735;28;20225;-73
2021/04/25 11:18:52;;;;;;;5.83;4.80;;;18.40;20.30;;;;;;10444542;28;20291;-72
2021/04/25 11:23:55;;;;;;;4.83;4.43;;;18.50;19.20;;;;;;10443535;28;20277;-72
2021/04/25 11:29:00;;;;;;;7.10;4.20;;;18.60;19.50;;;;;;10450796;28;20363;-72
2021/04/25 11:34:04;;;;;;;4.53;4.00;;;18.70;19.70;;;;;;10450594;28;20300;-73
2021/04/25 11:39:07;;;;;;;5.07;4.57;;;18.80;19.00;;;;;;10451410;28;20312;-71
2021/04/25 11:44:10;;;;;;;5.20;3.97;;;18.80;19.30;;;;;;10447207;28;20225;-72
2021/04/25 11:49:13;;;;;;;4.27;3.83;;;18.80;19.00;;;;;;10449309;28;20335;-72
2021/04/25 11:54:20;;;;;;;4.33;3.67;;;18.80;18.60;;;;;;10450498;28;20739;-72
2021/04/25 11:59:22;;;;;;;5.20;3.93;;;18.80;18.10;;;;;;10447927;28;20229;-72
2021/04/25 12:04:43;;;;;;;3.97;3.53;;;18.80;18.50;;;;;;10448095;28;20319;-72
2021/04/25 12:09:46;;;;;;;4.23;3.43;;;18.80;17.10;;;;;;10445971;28;20224;-72
2021/04/25 12:14:59;;;;;;;3.67;3.33;;;18.90;18.50;;;;;;10450491;28;20309;-73
2021/04/25 12:20:04;;;;;;;4.57;4.07;;;18.90;17.10;;;;;;10445064;28;20311;-72
2021/04/25 12:25:07;;;;;;;3.93;3.53;;;19.00;17.70;;;;;;10441712;28;20244;-73
2021/04/25 12:30:17;;;;;;;3.67;3.30;;;19.00;18.00;;;;;;10445162;28;20225;-73
2021/04/25 12:35:25;;;;;;;3.63;3.33;;;19.00;17.30;;;;;;10449740;28;20308;-74
2021/04/25 12:40:30;;;;;;;3.97;3.20;;;19.00;17.30;;;;;;10449818;28;20567;-73
2021/04/25 12:45:33;;;;;;;3.97;3.53;;;19.10;17.50;;;;;;10444751;28;20236;-74
2021/04/25 12:50:36;;;;;;;3.93;3.37;;;19.00;17.80;;;;;;10449354;28;20653;-71
2021/04/25 12:55:38;;;;;;;4.80;3.20;;;19.10;17.00;;;;;;10449423;28;20780;-72
2021/04/25 13:00:40;;;;;;;3.47;3.17;;;19.00;16.70;;;;;;10443868;28;20308;-71
2021/04/25 13:05:54;;;;;;;4.00;3.30;;;19.00;16.90;;;;;;10442875;28;20308;-75
2021/04/25 13:10:56;;;;;;;4.30;3.43;;;18.90;16.10;;;;;;10445773;28;20311;-72
2021/04/25 13:16:12;;;;;;;3.00;2.70;;;18.90;16.70;;;;;;10442856;28;20283;-72
2021/04/25 13:21:15;;;;;;;3.00;2.37;;;18.90;16.00;;;;;;10445699;28;20221;-71
2021/04/25 13:26:17;;;;;;;3.00;2.70;;;18.90;16.80;;;;;;10444860;28;20256;-71
2021/04/25 13:31:19;;;;;;;4.57;2.97;;;18.90;16.90;;;;;;10441608;28;20584;-72
2021/04/25 13:36:22;;;;;;;2.90;2.30;;;19.00;17.00;;;;;;10442922;28;20251;-72
2021/04/25 13:41:25;;;;;;;3.50;2.70;;;19.00;16.70;;;;;;10445233;28;20224;-73
2021/04/25 13:46:27;;;;;;;3.53;2.37;;;19.10;16.60;;;;;;10442812;28;20316;-71
2021/04/25 13:51:32;;;;;;;3.30;2.73;;;19.20;16.60;;;;;;10445122;28;20252;-71
2021/04/25 13:56:35;;;;;;;2.70;2.40;;;19.20;16.00;;;;;;10440409;28;20233;-72
2021/04/25 14:01:37;;;;;;;2.50;2.30;;;19.10;15.70;;;;;;10444324;28;20320;-72
2021/04/25 14:06:40;;;;;;;2.30;2.10;;;19.10;15.80;;;;;;10443362;28;20252;-72
2021/04/25 14:11:42;;;;;;;3.23;2.10;;;19.10;16.00;;;;;;10443500;28;20224;-73
2021/04/25 14:16:45;;;;;;;3.23;2.30;;;19.20;16.00;;;;;;10443007;28;20507;-73
2021/04/25 14:21:48;;;;;;;2.50;2.30;;;19.20;15.60;;;;;;10441685;28;20585;-73
2021/04/25 14:26:51;;;;;;;4.50;2.60;;;19.20;15.50;;;;;;10444152;28;20661;-72
2021/04/25 14:31:54;;;;;;;3.30;2.10;;;19.20;15.40;;;;;;10437245;28;20257;-72
2021/04/25 14:36:57;;;;;;;3.00;2.20;;;19.20;15.40;;;;;;10439437;28;20331;-72
2021/04/25 14:41:59;;;;;;;3.27;1.97;;;19.30;15.30;;;;;;10435745;28;20308;-71
2021/04/25 14:47:01;;;;;;;2.47;1.97;;;19.30;15.30;;;;;;10442548;28;20650;-73
2021/04/25 14:52:05;;;;;;;2.77;2.47;;;19.30;15.20;;;;;;10441392;28;20387;-72
2021/04/25 14:57:07;;;;;;;3.50;2.17;;;19.30;14.70;;;;;;10443431;28;20290;-72
2021/04/25 15:02:09;;;;;;;2.37;2.10;;;19.30;15.10;;;;;;10447489;28;20312;-72
2021/04/25 15:07:12;;;;;;;2.67;2.10;;;19.40;14.90;;;;;;10445291;28;20229;-72
2021/04/25 15:12:14;;;;;;;1.83;1.70;;;19.40;14.70;;;;;;10451502;28;20236;-72
2021/04/25 15:17:17;;;;;;;2.40;2.00;;;19.40;14.70;;;;;;10447407;28;20311;-72
2021/04/25 15:22:20;;;;;;;3.90;2.10;;;19.40;14.70;;;;;;10449626;28;20319;-72
2021/04/25 15:27:22;;;;;;;2.27;1.87;;;19.40;14.70;;;;;;10447393;28;20299;-72
2021/04/25 15:32:25;;;;;;;2.50;2.00;;;19.40;14.70;;;;;;10450447;28;20654;-72
2021/04/25 15:37:30;;;;;;;3.00;1.97;;;19.40;14.70;;;;;;10448151;28;20229;-72
2021/04/25 15:42:32;;;;;;;2.43;1.97;;;19.50;14.80;;;;;;10445822;28;20636;-72
2021/04/25 15:47:34;;;;;;;4.07;2.20;;;19.50;14.80;;;;;;10450349;28;20248;-72
2021/04/25 15:52:38;;;;;;;2.33;1.80;;;19.50;14.80;;;;;;10448121;28;20225;-72
2021/04/25 15:57:40;;;;;;;3.03;1.73;;;19.60;14.80;;;;;;10447178;28;20642;-72
2021/04/25 16:02:43;;;;;;;4.37;1.90;;;19.50;14.80;;;;;;10440784;28;20304;-72
2021/04/25 16:07:47;;;;;;;2.30;1.80;;;19.50;14.80;;;;;;10449896;28;20244;-72
2021/04/25 16:12:50;;;;;;;2.40;1.60;;;19.50;14.70;;;;;;10446000;28;20260;-72
2021/04/25 16:17:52;;;;;;;2.93;1.93;;;19.50;14.80;;;;;;10447701;28;20244;-72
2021/04/25 16:22:55;;;;;;;2.67;1.90;;;19.60;14.90;;;;;;10448788;28;20244;-73
2021/04/25 16:27:58;;;;;;;1.77;1.67;;;19.60;14.80;;;;;;10446700;28;20243;-73
2021/04/25 16:33:00;;;;;;;3.40;1.93;;;19.70;14.90;;;;;;10442057;28;20233;-74
2021/04/25 16:38:03;;;;;;;3.07;1.67;;;19.70;14.20;;;;;;10445461;28;20232;-73
2021/04/25 16:43:07;;;;;;;1.70;1.60;;;19.80;14.20;;;;;;10440635;28;20803;-74
2021/04/25 16:48:10;;;;;;;1.70;1.60;;;19.80;14.40;;;;;;10442739;28;20320;-73
2021/04/25 16:53:13;;;;;;;3.07;1.90;;;19.80;14.40;;;;;;10447030;28;20594;-73
2021/04/25 16:58:16;;;;;;;2.70;1.83;;;19.80;14.20;;;;;;10447481;28;20236;-73
2021/04/25 17:03:21;;;;;;;2.13;1.83;;;19.80;14.50;;;;;;10446079;28;20308;-73
2021/04/25 17:08:24;;;;;;;2.53;1.87;;;19.90;14.90;;;;;;10447077;28;20784;-73
2021/04/25 17:13:27;;;;;;;2.97;1.87;;;19.90;14.10;;;;;;10443910;28;20239;-73
2021/04/25 17:18:29;;;;;;;2.40;1.80;;;19.90;13.80;;;;;;10444972;28;20229;-73
2021/04/25 17:23:33;;;;;;;2.30;1.80;;;19.90;13.90;;;;;;10442656;28;20697;-73
2021/04/25 17:28:35;;;;;;;2.50;1.90;;;19.80;13.70;;;;;;10445621;28;20308;-73
2021/04/25 17:33:38;;;;;;;2.23;1.83;;;19.70;13.50;;;;;;10444098;28;20229;-74
2021/04/25 17:38:41;;;;;;;1.87;1.77;;;19.70;13.40;;;;;;10442388;28;20231;-74
2021/04/25 17:43:43;;;;;;;3.23;1.90;;;19.50;13.30;;;;;;10446449;28;20662;-73
2021/04/25 17:48:46;;;;;;;2.10;1.80;;;19.40;13.40;;;;;;10438701;28;20345;-73
2021/04/25 17:53:53;;;;;;;1.70;1.60;;;19.30;13.40;;;;;;10447749;28;20249;-73
2021/04/25 17:58:56;;;;;;;1.93;1.73;;;19.20;13.20;;;;;;10442299;28;20228;-73
2021/04/25 18:03:58;;;;;;;2.30;2.00;;;19.00;13.20;;;;;;10441392;28;20328;-73
2021/04/25 18:09:01;;;;;;;1.83;1.73;;;18.90;13.30;;;;;;10437716;28;20240;-72
2021/04/25 18:14:04;;;;;;;2.23;1.70;;;18.70;13.80;;;;;;10440620;28;20213;-72
2021/04/25 18:19:06;;;;;;;1.87;1.40;;;18.60;14.20;;;;;;10440792;28;20755;-73
2021/04/25 18:24:10;;;;;;;2.47;1.73;;;18.50;14.10;;;;;;10439298;28;20311;-76
2021/04/25 18:29:13;;;;;;;2.00;1.80;;;18.40;14.10;;;;;;10442898;28;20657;-72
2021/04/25 18:34:15;;;;;;;1.80;1.70;;;18.40;14.10;;;;;;10441558;28;20689;-73
2021/04/25 18:39:21;;;;;;;2.93;1.60;;;18.30;14.00;;;;;;10440591;28;20256;-72
2021/04/25 18:44:23;;;;;;;2.07;1.93;;;18.20;13.90;;;;;;10441601;28;20311;-71
2021/04/25 18:49:26;;;;;;;2.30;2.10;;;18.10;13.90;;;;;;10429280;28;20731;-71
2021/04/25 18:54:29;;;;;;;2.33;2.10;;;17.90;13.70;;;;;;10435800;28;20332;-71
2021/04/25 18:59:32;;;;;;;1.97;1.80;;;17.80;13.70;;;;;;10434580;28;20244;-72
2021/04/25 19:04:35;;;;;;;2.77;1.60;;;17.70;14.00;;;;;;10435560;28;20658;-72
2021/04/25 19:09:38;;;;;;;2.50;1.90;;;17.50;14.00;;;;;;10437079;28;20741;-72
2021/04/25 19:14:43;;;;;;;4.47;1.80;;;17.40;14.20;;;;;;10427557;28;20243;-72
2021/04/25 19:19:46;;;;;;;2.23;1.90;;;17.30;14.30;;;;;;10431825;28;20342;-71
2021/04/25 19:24:49;;;;;;;3.23;1.90;;;17.10;14.30;;;;;;10435424;28;20259;-72
2021/04/25 19:29:51;;;;;;;2.23;2.03;;;17.00;14.80;;;;;;10429203;28;20645;-71
2021/04/25 19:34:54;;;;;;;2.43;2.00;;;16.80;14.70;;;;;;10433887;28;20225;-72
2021/04/25 19:39:57;;;;;;;2.63;2.37;;;16.70;14.90;;;;;;10435097;28;20303;-72
2021/04/25 19:45:05;;;;;;;2.30;2.10;;;16.60;14.80;;;;;;10438558;28;20315;-72
2021/04/25 19:50:10;;;;;;;1.80;1.70;;;16.40;14.70;;;;;;10439583;28;20539;-72
2021/04/25 19:55:13;;;;;;;3.30;2.30;;;16.30;14.80;;;;;;10443329;28;20675;-72
2021/04/25 20:00:19;;;;;;;2.97;2.37;;;16.10;15.00;;;;;;10444465;28;20248;-72
2021/04/25 20:05:21;;;;;;;2.37;2.07;;;16.00;15.10;;;;;;10446470;28;20240;-72
2021/04/25 20:10:26;;;;;;;2.30;2.10;;;15.90;15.10;;;;;;10446002;28;20423;-72
2021/04/25 20:15:30;;;;;;;2.57;2.37;;;15.80;15.30;;;;;;10448674;28;20308;-72
2021/04/25 20:20:33;;;;;;;3.23;2.93;;;15.60;15.30;;;;;;10445666;28;20784;-72
2021/04/25 20:25:38;;;;;;;4.23;2.80;;;15.50;15.50;;;;;;10441506;28;20315;-72
2021/04/25 20:30:46;;;;;;;3.57;2.90;;;15.40;15.50;;;;;;10440034;28;20229;-72
2021/04/25 20:35:50;;;;;;;3.83;3.47;;;15.30;15.60;;;;;;10442854;28;20249;-71
2021/04/25 20:40:54;;;;;;;4.33;3.10;;;15.10;15.50;;;;;;10442896;28;20217;-72
2021/04/25 20:45:56;;;;;;;3.73;3.20;;;14.90;15.60;;;;;;10446730;28;20233;-72
2021/04/25 20:50:59;;;;;;;3.57;2.83;;;14.50;15.60;;;;;;10445145;28;20229;-72
2021/04/25 20:56:02;;;;;;;3.70;2.50;;;14.30;15.90;;;;;;10444980;28;20685;-72
2021/04/25 21:01:05;;;;;;;3.27;2.80;;;14.10;16.20;;;;;;10447043;28;20302;-71
2021/04/25 21:06:07;;;;;;;5.17;2.80;;;14.10;16.30;;;;;;10445881;28;20797;-72
2021/04/25 21:11:10;;;;;;;2.97;2.50;;;14.00;16.40;;;;;;10447923;28;20308;-72
2021/04/25 21:16:13;;;;;;;3.80;2.40;;;13.90;16.40;;;;;;10442745;28;20264;-72
2021/04/25 21:21:15;;;;;;;2.93;2.60;;;13.90;16.40;;;;;;10447254;28;20520;-72
2021/04/25 21:26:18;;;;;;;3.07;2.73;;;13.80;16.40;;;;;;10444468;28;20712;-72
2021/04/25 21:31:22;;;;;;;2.83;2.33;;;13.70;16.50;;;;;;10442881;28;20248;-72
2021/04/25 21:36:24;;;;;;;3.43;2.50;;;13.60;16.50;;;;;;10437654;28;20645;-72
2021/04/25 21:41:27;;;;;;;4.20;2.73;;;13.50;16.50;;;;;;10443646;28;20252;-72
2021/04/25 21:46:29;;;;;;;5.10;2.87;;;13.40;16.90;;;;;;10438020;28;20261;-72
2021/04/25 21:51:32;;;;;;;3.83;3.00;;;13.30;16.90;;;;;;10441875;28;20240;-72
2021/04/25 21:56:35;;;;;;;4.80;3.20;;;13.20;16.90;;;;;;10445648;28;20232;-72
2021/04/25 22:01:38;;;;;;;3.23;2.77;;;13.10;17.60;;;;;;10436694;28;20265;-72
2021/04/25 22:06:40;;;;;;;3.37;2.60;;;13.00;16.90;;;;;;10435681;28;20311;-72
2021/04/25 22:11:46;;;;;;;3.70;2.90;;;12.90;17.00;;;;;;10445366;28;20270;-72
2021/04/25 22:16:48;;;;;;;3.20;2.50;;;12.80;17.00;;;;;;10443030;28;20319;-72
2021/04/25 22:21:50;;;;;;;2.97;2.67;;;12.70;17.10;;;;;;10442391;28;20324;-72
2021/04/25 22:26:54;;;;;;;2.90;2.60;;;12.60;17.10;;;;;;10443622;28;20224;-72
2021/04/25 22:31:56;;;;;;;3.97;2.33;;;12.50;17.30;;;;;;10443566;28;20360;-72
2021/04/25 22:36:59;;;;;;;4.10;2.57;;;12.40;17.30;;;;;;10436431;28;20221;-72
2021/04/25 22:42:02;;;;;;;3.23;2.40;;;12.30;17.50;;;;;;10442955;28;20316;-72
2021/04/25 22:47:04;;;;;;;2.93;2.53;;;12.20;17.70;;;;;;10443995;28;20232;-73
2021/04/25 22:52:06;;;;;;;4.13;2.63;;;12.10;17.80;;;;;;10444171;28;20233;-72
2021/04/25 22:57:09;;;;;;;3.20;2.90;;;12.00;17.90;;;;;;10443699;28;20655;-72
2021/04/25 23:02:12;;;;;;;4.17;2.80;;;12.00;18.10;;;;;;10442599;28;20244;-72
2021/04/25 23:07:14;;;;;;;4.17;2.60;;;11.90;18.10;;;;;;10442619;28;20220;-72
2021/04/25 23:12:17;;;;;;;3.57;2.90;;;11.80;18.10;;;;;;10443754;28;20710;-72
2021/04/25 23:17:19;;;;;;;4.67;2.90;;;11.80;18.40;;;;;;10441595;28;20245;-73
2021/04/25 23:22:21;;;;;;;2.87;2.60;;;11.70;18.30;;;;;;10442187;28;20351;-72
2021/04/25 23:27:24;;;;;;;4.00;3.00;;;11.60;18.40;;;;;;10448982;28;20235;-72
2021/04/25 23:32:27;;;;;;;3.23;2.80;;;11.60;18.70;;;;;;10451176;28;20745;-72
2021/04/25 23:37:29;;;;;;;3.80;3.00;;;11.50;18.50;;;;;;10451130;28;20716;-72
2021/04/25 23:42:32;;;;;;;4.07;2.90;;;11.50;18.70;;;;;;10450119;28;20260;-72
2021/04/25 23:47:34;;;;;;;3.23;2.93;;;11.40;18.80;;;;;;10445154;28;20275;-72
2021/04/25 23:52:36;;;;;;;5.33;2.90;;;11.40;18.70;;;;;;10445227;28;20235;-72
2021/04/25 23:57:40;;;;;;;3.47;2.90;;;11.40;18.90;;;;;;10448737;28;20668;-72
